createdAt,value
2018-05-29T00:01:40.036Z,23.17
2018-05-29T00:04:06.440Z,23.29
2018-05-29T00:06:32.856Z,23.25
2018-05-29T00:08:59.192Z,23.06
2018-05-29T00:11:25.550Z,22.89
2018-05-29T00:13:52.225Z,22.78
2018-05-29T00:16:19.272Z,22.82
2018-05-29T00:18:46.356Z,22.96
2018-05-29T00:21:12.707Z,22.53
2018-05-29T00:23:39.097Z,22.41
2018-05-29T00:26:05.456Z,22.46
2018-05-29T00:28:31.834Z,22.49
2018-05-29T00:30:58.924Z,22.59
2018-05-29T00:33:25.296Z,22.69
2018-05-29T00:35:51.633Z,22.58
2018-05-29T00:38:18.002Z,22.47
2018-05-29T00:40:44.365Z,22.50
2018-05-29T00:43:10.709Z,22.21
2018-05-29T00:45:37.081Z,22.21
2018-05-29T00:48:04.121Z,21.99
2018-05-29T00:50:31.199Z,21.93
2018-05-29T00:55:37.900Z,21.89
2018-05-29T00:58:04.257Z,21.76
2018-05-29T01:00:30.636Z,21.74
2018-05-29T01:02:57.035Z,21.62
2018-05-29T01:05:24.116Z,21.44
2018-05-29T01:07:50.630Z,21.35
2018-05-29T01:10:17.751Z,21.44
2018-05-29T01:12:44.078Z,21.24
2018-05-29T01:15:10.410Z,21.27
2018-05-29T01:17:36.787Z,21.19
2018-05-29T01:20:03.168Z,21.24
2018-05-29T01:22:30.312Z,21.08
2018-05-29T01:24:57.183Z,21.20
2018-05-29T01:27:24.294Z,21.19
2018-05-29T01:29:50.682Z,21.23
2018-05-29T01:32:17.007Z,21.12
2018-05-29T01:34:43.335Z,21.06
2018-05-29T01:37:09.680Z,21.00
2018-05-29T01:39:36.195Z,21.10
2018-05-29T01:42:02.572Z,20.98
2018-05-29T01:44:29.063Z,20.84
2018-05-29T01:46:55.437Z,20.77
2018-05-29T01:49:22.541Z,20.64
2018-05-29T01:51:48.881Z,20.55
2018-05-29T01:54:15.220Z,20.58
2018-05-29T01:56:41.563Z,20.81
2018-05-29T01:59:07.874Z,20.92
2018-05-29T02:01:34.264Z,20.98
2018-05-29T02:04:00.794Z,20.63
2018-05-29T02:06:27.157Z,20.71
2018-05-29T02:08:53.570Z,20.58
2018-05-29T02:11:20.722Z,20.89
2018-05-29T02:13:47.863Z,20.90
2018-05-29T02:16:14.179Z,20.79
2018-05-29T02:18:40.568Z,20.69
2018-05-29T02:21:06.899Z,20.62
2018-05-29T02:23:33.297Z,20.60
2018-05-29T02:25:59.724Z,20.75
2018-05-29T02:28:26.818Z,20.77
2018-05-29T02:30:53.136Z,20.51
2018-05-29T02:33:19.471Z,20.50
2018-05-29T02:35:45.817Z,20.55
2018-05-29T02:38:12.179Z,20.68
2018-05-29T02:40:38.574Z,20.69
2018-05-29T02:43:04.913Z,20.86
2018-05-29T02:45:31.234Z,20.76
2018-05-29T02:47:57.620Z,20.38
2018-05-29T02:50:24.761Z,20.33
2018-05-29T02:52:51.850Z,20.43
2018-05-29T02:55:18.170Z,20.51
2018-05-29T02:57:44.504Z,20.69
2018-05-29T03:00:10.995Z,20.65
2018-05-29T03:02:38.078Z,20.40
2018-05-29T03:05:05.007Z,20.29
2018-05-29T03:07:31.391Z,20.34
2018-05-29T03:09:57.789Z,20.40
2018-05-29T03:12:24.136Z,20.49
2018-05-29T03:14:50.434Z,20.38
2018-05-29T03:17:16.795Z,20.20
2018-05-29T03:19:43.141Z,20.19
2018-05-29T03:22:09.498Z,20.28
2018-05-29T03:24:36.553Z,20.30
2018-05-29T03:27:03.661Z,20.07
2018-05-29T03:29:30.029Z,19.94
2018-05-29T03:31:57.176Z,20.15
2018-05-29T03:34:24.306Z,20.25
2018-05-29T03:36:50.610Z,20.31
2018-05-29T03:39:16.972Z,20.26
2018-05-29T03:41:43.339Z,20.40
2018-05-29T03:44:09.687Z,20.32
2018-05-29T03:46:36.001Z,20.45
2018-05-29T03:49:02.389Z,20.56
2018-05-29T03:51:28.719Z,20.39
2018-05-29T03:53:55.050Z,20.38
2018-05-29T03:56:21.392Z,20.44
2018-05-29T03:58:48.481Z,20.57
2018-05-29T04:01:14.866Z,20.52
2018-05-29T04:03:42.015Z,20.64
2018-05-29T04:06:09.107Z,20.67
2018-05-29T04:08:35.571Z,20.75
2018-05-29T04:11:03.500Z,20.86
2018-05-29T04:13:29.902Z,20.94
2018-05-29T04:15:57.094Z,20.91
2018-05-29T04:18:23.475Z,20.96
2018-05-29T04:20:50.564Z,21.02
2018-05-29T04:23:16.924Z,21.02
2018-05-29T04:25:43.367Z,20.97
2018-05-29T04:28:09.759Z,21.13
2018-05-29T04:30:36.909Z,21.11
2018-05-29T04:33:03.234Z,21.10
2018-05-29T04:35:29.670Z,20.94
2018-05-29T04:37:56.102Z,21.04
2018-05-29T04:40:22.749Z,21.20
2018-05-29T04:42:49.121Z,21.13
2018-05-29T04:45:15.457Z,21.09
2018-05-29T04:47:42.528Z,20.99
2018-05-29T04:50:08.873Z,21.29
2018-05-29T04:52:35.309Z,21.25
2018-05-29T04:55:01.624Z,21.23
2018-05-29T04:57:27.971Z,21.10
2018-05-29T04:59:54.289Z,21.09
2018-05-29T05:02:20.618Z,21.35
2018-05-29T05:04:47.002Z,21.26
2018-05-29T05:07:13.341Z,21.32
2018-05-29T05:09:40.457Z,21.36
2018-05-29T05:12:06.938Z,21.54
2018-05-29T05:14:34.074Z,21.49
2018-05-29T05:17:01.182Z,21.78
2018-05-29T05:19:27.561Z,22.02
2018-05-29T05:21:54.630Z,21.89
2018-05-29T05:24:20.971Z,21.84
2018-05-29T05:26:47.503Z,22.11
2018-05-29T05:29:13.838Z,22.08
2018-05-29T05:31:40.169Z,22.24
2018-05-29T05:34:06.555Z,22.08
2018-05-29T05:36:32.921Z,21.94
2018-05-29T05:38:59.245Z,21.82
2018-05-29T05:41:25.691Z,21.86
2018-05-29T05:43:52.031Z,21.48
2018-05-29T05:46:18.863Z,21.68
2018-05-29T05:48:45.256Z,22.99
2018-05-29T05:51:12.342Z,24.09
2018-05-29T05:53:38.739Z,24.10
2018-05-29T05:56:05.853Z,24.61
2018-05-29T05:58:32.319Z,25.87
2018-05-29T06:00:58.629Z,25.80
2018-05-29T06:03:24.979Z,25.20
2018-05-29T06:05:51.376Z,25.78
2018-05-29T06:08:17.712Z,26.70
2018-05-29T06:10:44.061Z,27.82
2018-05-29T06:13:11.304Z,28.62
2018-05-29T06:15:38.408Z,28.19
2018-05-29T06:18:04.759Z,27.75
2018-05-29T06:20:31.118Z,28.43
2018-05-29T06:22:58.266Z,28.98
2018-05-29T06:25:25.377Z,28.54
2018-05-29T06:27:51.959Z,28.65
2018-05-29T06:30:18.278Z,28.32
2018-05-29T06:32:45.429Z,28.16
2018-05-29T06:35:11.707Z,28.22
2018-05-29T06:37:38.040Z,28.62
2018-05-29T06:40:04.536Z,29.54
2018-05-29T06:42:30.913Z,29.52
2018-05-29T06:44:57.328Z,29.81
2018-05-29T06:47:24.358Z,28.23
2018-05-29T06:49:50.714Z,27.86
2018-05-29T06:52:17.782Z,28.86
2018-05-29T06:54:44.105Z,28.63
2018-05-29T06:57:10.461Z,27.72
2018-05-29T06:59:37.490Z,26.99
2018-05-29T07:02:03.804Z,26.79
2018-05-29T07:04:30.086Z,27.02
2018-05-29T07:06:56.481Z,26.47
2018-05-29T07:09:28.824Z,25.69
2018-05-29T07:11:55.576Z,25.25
2018-05-29T07:14:21.929Z,25.24
2018-05-29T07:16:48.341Z,25.83
2018-05-29T07:19:14.701Z,25.29
2018-05-29T07:21:41.845Z,24.85
2018-05-29T07:24:08.976Z,24.84
2018-05-29T07:26:35.314Z,24.77
2018-05-29T07:29:01.760Z,24.85
2018-05-29T07:31:28.803Z,25.22
2018-05-29T07:33:55.859Z,25.53
2018-05-29T07:36:22.930Z,25.58
2018-05-29T07:38:49.330Z,25.50
2018-05-29T07:41:16.034Z,25.75
2018-05-29T07:43:42.382Z,25.49
2018-05-29T07:46:09.470Z,25.85
2018-05-29T07:48:35.850Z,25.53
2018-05-29T07:51:02.224Z,25.78
2018-05-29T07:53:29.327Z,25.64
2018-05-29T07:55:55.765Z,25.64
2018-05-29T07:58:22.106Z,25.98
2018-05-29T08:00:48.434Z,26.35
2018-05-29T08:03:14.782Z,26.13
2018-05-29T08:05:41.914Z,25.79
2018-05-29T08:08:08.259Z,25.17
2018-05-29T08:10:35.364Z,25.06
2018-05-29T08:13:01.794Z,24.94
2018-05-29T08:15:28.257Z,25.02
2018-05-29T08:17:55.598Z,25.08
2018-05-29T08:20:21.936Z,25.70
2018-05-29T08:22:48.266Z,26.11
2018-05-29T08:25:14.634Z,26.30
2018-05-29T08:27:41.059Z,26.56
2018-05-29T08:30:07.421Z,26.07
2018-05-29T08:32:33.791Z,26.04
2018-05-29T08:35:00.124Z,25.81
2018-05-29T08:37:26.464Z,25.94
2018-05-29T08:39:53.515Z,25.87
2018-05-29T08:42:20.667Z,26.09
2018-05-29T08:44:47.792Z,26.24
2018-05-29T08:47:14.147Z,25.90
2018-05-29T08:49:41.223Z,26.22
2018-05-29T08:52:07.631Z,26.71
2018-05-29T08:54:33.931Z,27.10
2018-05-29T08:57:00.324Z,27.27
2018-05-29T08:59:26.648Z,27.24
2018-05-29T09:01:52.999Z,27.25
2018-05-29T09:04:19.402Z,26.81
2018-05-29T09:06:46.606Z,26.75
2018-05-29T09:09:13.089Z,26.53
2018-05-29T09:11:40.285Z,26.39
2018-05-29T09:14:06.730Z,26.47
2018-05-29T09:16:34.422Z,26.26
2018-05-29T09:19:00.920Z,26.07
2018-05-29T09:21:28.051Z,26.19
2018-05-29T09:23:54.389Z,26.08
2018-05-29T09:26:20.722Z,26.14
2018-05-29T09:28:47.897Z,25.80
2018-05-29T09:31:14.988Z,25.60
2018-05-29T09:33:41.383Z,25.67
2018-05-29T09:36:07.713Z,25.67
2018-05-29T09:38:34.030Z,25.66
2018-05-29T09:41:01.146Z,25.40
2018-05-29T09:43:27.699Z,25.70
2018-05-29T09:45:54.893Z,25.78
2018-05-29T09:48:21.954Z,26.27
2018-05-29T09:50:48.295Z,26.26
2018-05-29T09:53:14.747Z,26.08
2018-05-29T09:55:41.078Z,26.41
2018-05-29T09:58:07.577Z,26.96
2018-05-29T10:00:38.843Z,26.44
2018-05-29T10:03:05.209Z,26.56
2018-05-29T10:05:32.358Z,26.40
2018-05-29T10:07:59.517Z,26.04
2018-05-29T10:10:25.852Z,26.37
2018-05-29T10:12:52.193Z,26.34
2018-05-29T10:15:18.573Z,26.19
2018-05-29T10:17:44.937Z,25.86
2018-05-29T10:20:11.293Z,25.81
2018-05-29T10:22:37.614Z,25.91
2018-05-29T10:25:03.998Z,26.00
2018-05-29T10:27:30.348Z,25.90
2018-05-29T10:29:57.499Z,26.15
2018-05-29T10:32:24.571Z,26.35
2018-05-29T10:34:50.998Z,26.40
2018-05-29T10:37:17.507Z,26.96
2018-05-29T10:39:43.866Z,26.92
2018-05-29T10:42:10.183Z,26.96
2018-05-29T10:44:36.526Z,27.18
2018-05-29T10:47:02.899Z,26.96
2018-05-29T10:49:29.241Z,26.46
2018-05-29T10:51:56.389Z,25.92
2018-05-29T10:54:22.764Z,25.77
2018-05-29T10:56:49.115Z,25.68
2018-05-29T10:59:15.542Z,25.83
2018-05-29T11:01:42.462Z,25.67
2018-05-29T11:04:08.829Z,25.57
2018-05-29T11:06:35.234Z,25.43
2018-05-29T11:09:01.666Z,25.42
2018-05-29T11:11:28.101Z,25.47
2018-05-29T11:13:54.436Z,25.56
2018-05-29T11:16:20.862Z,25.72
2018-05-29T11:18:47.242Z,25.75
2018-05-29T11:21:13.593Z,25.67
2018-05-29T11:23:39.911Z,26.21
2018-05-29T11:26:06.341Z,26.25
2018-05-29T11:28:32.722Z,26.34
2018-05-29T11:30:59.091Z,26.03
2018-05-29T11:33:25.554Z,25.92
2018-05-29T11:35:51.867Z,25.87
2018-05-29T11:38:18.950Z,25.85
2018-05-29T11:40:45.972Z,25.50
2018-05-29T11:43:12.390Z,24.95
2018-05-29T11:45:39.508Z,25.09
2018-05-29T11:48:06.016Z,24.93
2018-05-29T11:50:32.455Z,24.97
2018-05-29T11:52:58.942Z,24.95
2018-05-29T11:55:26.034Z,24.75
2018-05-29T11:57:52.358Z,24.73
2018-05-29T12:00:18.715Z,24.83
2018-05-29T12:02:45.095Z,24.87
2018-05-29T12:05:11.465Z,24.77
2018-05-29T12:07:37.819Z,24.96
2018-05-29T12:10:04.178Z,24.85
2018-05-29T12:12:30.558Z,24.95
2018-05-29T12:14:56.977Z,25.03
2018-05-29T12:17:23.385Z,25.05
2018-05-29T12:19:49.757Z,24.85
2018-05-29T12:22:16.107Z,24.82
2018-05-29T12:24:42.456Z,24.83
2018-05-29T12:27:09.622Z,24.88
2018-05-29T12:29:36.037Z,24.94
2018-05-29T12:32:03.153Z,25.02
2018-05-29T12:34:29.498Z,25.08
2018-05-29T12:36:55.897Z,25.21
2018-05-29T12:39:22.257Z,25.08
2018-05-29T12:41:48.623Z,24.99
2018-05-29T12:44:14.942Z,25.30
2018-05-29T12:46:42.204Z,25.54
2018-05-29T12:49:08.571Z,25.54
2018-05-29T12:51:34.995Z,25.85
2018-05-29T12:54:01.362Z,25.79
2018-05-29T12:56:27.738Z,26.08
2018-05-29T12:58:54.201Z,26.15
2018-05-29T13:01:20.601Z,25.78
2018-05-29T13:03:46.970Z,25.89
2018-05-29T13:06:13.280Z,25.76
2018-05-29T13:08:39.637Z,25.90
2018-05-29T13:11:06.049Z,26.06
2018-05-29T13:13:32.377Z,26.28
2018-05-29T13:15:58.734Z,26.34
2018-05-29T13:18:25.091Z,26.13
2018-05-29T13:20:52.715Z,26.46
2018-05-29T13:23:19.066Z,26.54
2018-05-29T13:25:46.134Z,26.50
2018-05-29T13:28:12.547Z,26.58
2018-05-29T13:30:39.661Z,26.71
2018-05-29T13:33:06.032Z,26.82
2018-05-29T13:35:32.416Z,26.76
2018-05-29T13:37:58.751Z,26.75
2018-05-29T13:40:25.298Z,26.67
2018-05-29T13:42:51.645Z,26.89
2018-05-29T13:45:18.021Z,26.89
2018-05-29T13:47:44.412Z,26.86
2018-05-29T13:50:11.586Z,26.89
2018-05-29T13:52:37.919Z,26.50
2018-05-29T13:55:04.261Z,26.11
2018-05-29T13:57:30.691Z,26.02
2018-05-29T13:59:57.237Z,26.11
2018-05-29T14:02:23.655Z,26.12
2018-05-29T14:04:49.982Z,26.11
2018-05-29T14:07:16.367Z,25.98
2018-05-29T14:09:42.713Z,26.04
2018-05-29T14:12:09.835Z,26.06
2018-05-29T14:14:36.234Z,26.17
2018-05-29T14:17:02.704Z,26.45
2018-05-29T14:19:29.119Z,26.58
2018-05-29T14:21:55.426Z,26.33
2018-05-29T14:24:21.798Z,26.94
2018-05-29T14:26:48.250Z,27.45
2018-05-29T14:29:15.355Z,27.69
2018-05-29T14:31:41.685Z,27.77
2018-05-29T14:34:08.101Z,27.70
2018-05-29T14:36:34.425Z,27.86
2018-05-29T14:39:00.851Z,27.57
2018-05-29T14:41:27.189Z,27.61
2018-05-29T14:43:53.585Z,27.32
2018-05-29T14:46:19.906Z,26.93
2018-05-29T14:48:46.958Z,26.48
2018-05-29T14:51:14.075Z,26.50
2018-05-29T14:53:40.547Z,26.14
2018-05-29T14:56:07.630Z,25.94
2018-05-29T14:58:33.992Z,25.73
2018-05-29T15:01:00.443Z,25.72
2018-05-29T15:03:26.867Z,25.71
2018-05-29T15:05:53.216Z,25.63
2018-05-29T15:08:20.371Z,25.68
2018-05-29T15:10:46.775Z,25.90
2018-05-29T15:13:13.110Z,25.94
2018-05-29T15:15:40.230Z,26.36
2018-05-29T15:18:07.363Z,26.40
2018-05-29T15:20:33.799Z,26.38
2018-05-29T15:23:00.264Z,26.54
2018-05-29T15:25:27.271Z,26.47
2018-05-29T15:27:53.647Z,26.53
2018-05-29T15:30:20.080Z,26.12
2018-05-29T15:32:47.233Z,25.96
2018-05-29T15:35:14.410Z,25.82
2018-05-29T15:37:40.750Z,25.82
2018-05-29T15:40:07.090Z,25.62
2018-05-29T15:42:33.470Z,25.47
2018-05-29T15:45:00.636Z,25.51
2018-05-29T15:47:27.053Z,25.55
2018-05-29T15:49:54.171Z,25.55
2018-05-29T15:52:20.516Z,25.25
2018-05-29T15:54:46.935Z,25.25
2018-05-29T15:57:13.955Z,25.26
2018-05-29T15:59:40.347Z,25.25
2018-05-29T16:02:06.740Z,25.28
2018-05-29T16:04:33.085Z,25.27
2018-05-29T16:06:59.535Z,25.26
2018-05-29T16:09:26.671Z,25.27
2018-05-29T16:11:53.160Z,25.41
2018-05-29T16:14:19.898Z,25.37
2018-05-29T16:16:46.395Z,25.56
2018-05-29T16:19:13.987Z,25.38
2018-05-29T16:21:40.416Z,25.64
2018-05-29T16:24:07.190Z,25.43
2018-05-29T16:26:33.625Z,25.26
2018-05-29T16:28:59.992Z,25.36
2018-05-29T16:31:27.100Z,25.36
2018-05-29T16:33:54.341Z,25.28
2018-05-29T16:36:20.942Z,25.20
2018-05-29T16:38:47.290Z,25.24
2018-05-29T16:41:13.709Z,25.15
2018-05-29T16:43:40.467Z,25.25
2018-05-29T16:46:06.910Z,25.29
2018-05-29T16:48:33.299Z,25.13
2018-05-29T16:50:59.821Z,25.13
2018-05-29T16:53:27.055Z,25.07
2018-05-29T16:55:54.304Z,25.11
2018-05-29T16:58:21.522Z,25.03
2018-05-29T17:00:47.951Z,25.33
2018-05-29T17:03:14.337Z,25.19
2018-05-29T17:05:41.734Z,25.24
2018-05-29T17:08:08.084Z,25.31
2018-05-29T17:10:34.496Z,25.25
2018-05-29T17:13:00.925Z,25.14
2018-05-29T17:15:27.513Z,25.25
2018-05-29T17:17:54.696Z,25.33
2018-05-29T17:20:21.090Z,25.23
2018-05-29T17:22:48.301Z,25.13
2018-05-29T17:25:14.889Z,24.95
2018-05-29T17:27:41.366Z,24.99
2018-05-29T17:30:07.859Z,24.97
2018-05-29T17:32:34.964Z,24.97
2018-05-29T17:35:01.406Z,24.84
2018-05-29T17:37:28.018Z,24.82
2018-05-29T17:39:54.328Z,24.81
2018-05-29T17:42:20.880Z,24.98
2018-05-29T17:44:47.722Z,24.72
2018-05-29T17:49:47.752Z,24.69
2018-05-29T17:52:15.291Z,24.48
2018-05-29T17:54:42.770Z,24.52
2018-05-29T17:57:09.409Z,24.41
2018-05-29T17:59:36.188Z,24.20
2018-05-29T18:02:02.795Z,24.25
2018-05-29T18:04:30.029Z,24.18
2018-05-29T18:06:56.689Z,24.21
2018-05-29T18:09:23.601Z,24.31
2018-05-29T18:11:50.313Z,24.23
2018-05-29T18:14:17.528Z,24.35
2018-05-29T18:16:44.183Z,24.20
2018-05-29T18:19:10.862Z,24.22
2018-05-29T18:21:37.500Z,24.30
2018-05-29T18:24:04.078Z,24.18
2018-05-29T18:26:30.747Z,24.16
2018-05-29T18:28:57.294Z,23.97
2018-05-29T18:31:23.762Z,23.93
2018-05-29T18:33:50.264Z,24.01
2018-05-29T18:36:17.662Z,23.91
2018-05-29T18:38:44.213Z,23.98
2018-05-29T18:41:10.598Z,23.90
2018-05-29T18:43:37.160Z,23.96
2018-05-29T18:46:03.526Z,23.86
2018-05-29T18:48:29.994Z,23.77
2018-05-29T18:50:56.385Z,23.69
2018-05-29T18:53:22.789Z,23.65
2018-05-29T18:55:49.304Z,23.66
2018-05-29T18:58:15.817Z,23.68
2018-05-29T19:00:42.968Z,23.70
2018-05-29T19:03:09.463Z,23.46
2018-05-29T19:05:36.675Z,23.31
2018-05-29T19:08:03.788Z,23.10
2018-05-29T19:10:30.237Z,23.23
2018-05-29T19:12:56.631Z,22.76
2018-05-29T19:15:23.842Z,22.61
2018-05-29T19:17:50.441Z,22.47
2018-05-29T19:20:16.893Z,22.17
2018-05-29T19:22:43.267Z,22.10
2018-05-29T19:25:10.423Z,21.88
2018-05-29T19:27:37.568Z,21.75
2018-05-29T19:30:04.691Z,21.60
2018-05-29T19:32:31.098Z,21.76
2018-05-29T19:34:57.518Z,21.58
2018-05-29T19:37:23.914Z,21.33
2018-05-29T19:39:51.115Z,21.26
2018-05-29T19:42:17.644Z,21.19
2018-05-29T19:44:44.113Z,21.08
2018-05-29T19:47:10.550Z,21.02
2018-05-29T19:49:37.688Z,21.02
2018-05-29T19:52:10.758Z,20.89
2018-05-29T19:54:39.494Z,20.75
2018-05-29T19:57:06.787Z,20.67
2018-05-29T19:59:33.240Z,20.66
2018-05-29T20:01:59.750Z,20.67
2018-05-29T20:04:26.955Z,20.45
2018-05-29T20:06:53.557Z,20.42
2018-05-29T20:09:20.056Z,20.39
2018-05-29T20:11:46.596Z,20.31
2018-05-29T20:14:13.908Z,20.57
2018-05-29T20:16:41.096Z,20.64
2018-05-29T20:19:07.552Z,20.44
2018-05-29T20:21:34.007Z,20.36
2018-05-29T20:24:00.449Z,20.28
2018-05-29T20:26:28.123Z,20.02
2018-05-29T20:28:54.703Z,20.02
2018-05-29T20:31:21.168Z,20.08
2018-05-29T20:33:47.565Z,20.06
2018-05-29T20:36:13.958Z,19.93
2018-05-29T20:38:40.367Z,19.90
2018-05-29T20:41:07.536Z,19.98
2018-05-29T20:43:33.936Z,20.02
2018-05-29T20:46:00.355Z,19.94
2018-05-29T20:48:26.777Z,19.78
2018-05-29T20:50:53.162Z,19.81
2018-05-29T20:53:19.985Z,19.67
2018-05-29T20:55:47.104Z,19.63
2018-05-29T20:58:13.479Z,19.59
2018-05-29T21:00:40.705Z,19.53
2018-05-29T21:03:07.047Z,19.56
2018-05-29T21:05:34.239Z,19.59
2018-05-29T21:08:00.974Z,19.48
2018-05-29T21:10:27.460Z,19.43
2018-05-29T21:12:53.923Z,19.38
2018-05-29T21:15:20.370Z,19.41
2018-05-29T21:17:46.787Z,19.40
2018-05-29T21:20:13.212Z,19.33
2018-05-29T21:22:39.665Z,19.26
2018-05-29T21:25:06.134Z,19.20
2018-05-29T21:27:32.841Z,19.12
2018-05-29T21:29:59.246Z,19.04
2018-05-29T21:32:26.491Z,19.02
2018-05-29T21:34:53.648Z,19.05
2018-05-29T21:37:20.841Z,19.03
2018-05-29T21:39:47.268Z,18.97
2018-05-29T21:42:13.724Z,18.97
2018-05-29T21:44:40.758Z,18.93
2018-05-29T21:47:07.165Z,18.87
2018-05-29T21:49:34.323Z,18.87
2018-05-29T21:52:00.752Z,18.97
2018-05-29T21:54:27.101Z,18.91
2018-05-29T21:56:53.581Z,18.88
2018-05-29T21:59:20.005Z,18.93
2018-05-29T22:01:47.108Z,18.87
2018-05-29T22:04:13.521Z,18.86
2018-05-29T22:06:39.887Z,18.87
2018-05-29T22:09:07.006Z,18.82
2018-05-29T22:11:33.383Z,18.77
2018-05-29T22:14:00.554Z,18.79
2018-05-29T22:16:27.111Z,18.78
2018-05-29T22:18:53.462Z,18.81
2018-05-29T22:21:20.579Z,18.77
2018-05-29T22:23:46.942Z,18.96
2018-05-29T22:26:13.316Z,18.97
2018-05-29T22:28:40.500Z,19.18
2018-05-29T22:31:07.048Z,19.25
2018-05-29T22:33:33.463Z,19.24
2018-05-29T22:35:59.799Z,19.07
2018-05-29T22:38:26.138Z,18.92
2018-05-29T22:40:52.546Z,18.87
2018-05-29T22:43:19.012Z,18.83
2018-05-29T22:45:45.431Z,18.73
2018-05-29T22:48:11.812Z,18.66
2018-05-29T22:50:38.883Z,18.79
2018-05-29T22:53:05.330Z,18.67
2018-05-29T22:55:31.729Z,18.50
2018-05-29T22:57:58.878Z,18.41
2018-05-29T23:00:25.956Z,18.32
2018-05-29T23:02:52.346Z,18.28
2018-05-29T23:05:19.457Z,18.21
2018-05-29T23:07:45.837Z,18.17
2018-05-29T23:10:12.214Z,18.28
2018-05-29T23:12:39.259Z,18.26
2018-05-29T23:15:05.720Z,18.23
2018-05-29T23:17:32.019Z,18.26
2018-05-29T23:19:58.449Z,18.42
2018-05-29T23:22:24.807Z,18.46
2018-05-29T23:24:51.216Z,18.47
2018-05-29T23:27:17.575Z,18.56
2018-05-29T23:29:44.080Z,18.47
2018-05-29T23:32:10.490Z,18.53
2018-05-29T23:34:36.816Z,18.49
2018-05-29T23:37:03.131Z,18.49
2018-05-29T23:39:29.454Z,18.41
2018-05-29T23:41:56.532Z,18.35
2018-05-29T23:44:22.877Z,18.24
2018-05-29T23:46:49.197Z,18.19
2018-05-29T23:49:15.574Z,18.17
2018-05-29T23:51:42.315Z,18.11
2018-05-29T23:54:08.697Z,18.10
2018-05-29T23:56:35.038Z,17.95
2018-05-29T23:59:01.366Z,17.95
